sensor_id;sensor_type;location;lat;lon;timestamp;P1;durP1;ratioP1;P2;durP2;ratioP2
12715;SDS011;6422;49.938;9.124;2022-07-29T00:02:24;27.07;;;1.63;;
12715;SDS011;6422;49.938;9.124;2022-07-29T00:04:49;23.30;;;1.80;;
12715;SDS011;6422;49.938;9.124;2022-07-29T00:07:14;28.20;;;1.77;;
12715;SDS011;6422;49.938;9.124;2022-07-29T00:09:39;23.97;;;1.70;;
12715;SDS011;6422;49.938;9.124;2022-07-29T00:12:04;24.53;;;1.50;;
12715;SDS011;6422;49.938;9.124;2022-07-29T00:14:30;49.07;;;2.60;;
12715;SDS011;6422;49.938;9.124;2022-07-29T00:16:55;30.90;;;2.10;;
12715;SDS011;6422;49.938;9.124;2022-07-29T00:19:20;25.83;;;1.70;;
12715;SDS011;6422;49.938;9.124;2022-07-29T00:21:45;22.80;;;1.50;;
12715;SDS011;6422;49.938;9.124;2022-07-29T00:24:10;27.90;;;2.43;;
12715;SDS011;6422;49.938;9.124;2022-07-29T00:26:36;25.10;;;2.10;;
12715;SDS011;6422;49.938;9.124;2022-07-29T00:29:02;24.87;;;1.67;;
12715;SDS011;6422;49.938;9.124;2022-07-29T00:31:27;23.77;;;1.90;;
12715;SDS011;6422;49.938;9.124;2022-07-29T00:33:52;26.33;;;1.83;;
12715;SDS011;6422;49.938;9.124;2022-07-29T00:36:18;25.07;;;1.90;;
12715;SDS011;6422;49.938;9.124;2022-07-29T00:38:43;23.07;;;1.53;;
12715;SDS011;6422;49.938;9.124;2022-07-29T00:41:10;24.37;;;2.23;;
12715;SDS011;6422;49.938;9.124;2022-07-29T00:43:35;25.30;;;2.23;;
12715;SDS011;6422;49.938;9.124;2022-07-29T00:46:00;23.35;;;1.52;;
12715;SDS011;6422;49.938;9.124;2022-07-29T00:48:26;26.23;;;1.80;;
12715;SDS011;6422;49.938;9.124;2022-07-29T00:50:51;28.00;;;1.70;;
12715;SDS011;6422;49.938;9.124;2022-07-29T00:53:16;23.00;;;1.60;;
12715;SDS011;6422;49.938;9.124;2022-07-29T00:55:41;23.07;;;1.53;;
12715;SDS011;6422;49.938;9.124;2022-07-29T00:58:07;26.83;;;2.40;;
12715;SDS011;6422;49.938;9.124;2022-07-29T01:00:33;25.90;;;2.03;;
12715;SDS011;6422;49.938;9.124;2022-07-29T01:02:58;26.60;;;2.00;;
12715;SDS011;6422;49.938;9.124;2022-07-29T01:05:24;25.50;;;2.80;;
12715;SDS011;6422;49.938;9.124;2022-07-29T01:07:51;25.20;;;2.53;;
12715;SDS011;6422;49.938;9.124;2022-07-29T01:10:17;23.57;;;2.00;;
12715;SDS011;6422;49.938;9.124;2022-07-29T01:12:43;24.70;;;2.00;;
12715;SDS011;6422;49.938;9.124;2022-07-29T01:15:09;23.33;;;1.43;;
12715;SDS011;6422;49.938;9.124;2022-07-29T01:20:05;26.43;;;2.03;;
12715;SDS011;6422;49.938;9.124;2022-07-29T01:30:00;32.53;;;1.90;;
12715;SDS011;6422;49.938;9.124;2022-07-29T01:32:27;25.13;;;2.23;;
12715;SDS011;6422;49.938;9.124;2022-07-29T01:40:02;22.97;;;1.90;;
12715;SDS011;6422;49.938;9.124;2022-07-29T01:42:35;24.40;;;1.80;;
12715;SDS011;6422;49.938;9.124;2022-07-29T01:45:18;25.30;;;2.40;;
12715;SDS011;6422;49.938;9.124;2022-07-29T01:48:06;26.83;;;1.90;;
12715;SDS011;6422;49.938;9.124;2022-07-29T01:50:33;24.40;;;1.93;;
12715;SDS011;6422;49.938;9.124;2022-07-29T01:53:00;25.20;;;2.27;;
12715;SDS011;6422;49.938;9.124;2022-07-29T01:55:28;29.17;;;2.40;;
12715;SDS011;6422;49.938;9.124;2022-07-29T01:57:54;23.03;;;1.87;;
12715;SDS011;6422;49.938;9.124;2022-07-29T02:00:21;24.27;;;1.97;;
12715;SDS011;6422;49.938;9.124;2022-07-29T02:02:46;25.60;;;1.77;;
12715;SDS011;6422;49.938;9.124;2022-07-29T02:05:13;31.70;;;2.13;;
12715;SDS011;6422;49.938;9.124;2022-07-29T02:07:40;32.70;;;2.20;;
12715;SDS011;6422;49.938;9.124;2022-07-29T02:10:07;22.93;;;1.70;;
12715;SDS011;6422;49.938;9.124;2022-07-29T02:12:33;23.80;;;2.13;;
12715;SDS011;6422;49.938;9.124;2022-07-29T02:15:00;24.20;;;1.87;;
12715;SDS011;6422;49.938;9.124;2022-07-29T02:17:29;25.80;;;2.23;;
12715;SDS011;6422;49.938;9.124;2022-07-29T02:19:56;24.70;;;1.87;;
12715;SDS011;6422;49.938;9.124;2022-07-29T02:22:23;24.77;;;2.00;;
12715;SDS011;6422;49.938;9.124;2022-07-29T02:24:49;27.70;;;2.17;;
12715;SDS011;6422;49.938;9.124;2022-07-29T02:27:16;27.57;;;2.27;;
12715;SDS011;6422;49.938;9.124;2022-07-29T02:29:42;24.20;;;2.07;;
12715;SDS011;6422;49.938;9.124;2022-07-29T02:32:07;23.07;;;1.90;;
12715;SDS011;6422;49.938;9.124;2022-07-29T02:34:35;26.63;;;2.53;;
12715;SDS011;6422;49.938;9.124;2022-07-29T02:37:00;25.30;;;2.23;;
12715;SDS011;6422;49.938;9.124;2022-07-29T02:39:26;25.80;;;2.97;;
12715;SDS011;6422;49.938;9.124;2022-07-29T02:41:54;27.73;;;3.07;;
12715;SDS011;6422;49.938;9.124;2022-07-29T02:44:21;27.30;;;2.43;;
12715;SDS011;6422;49.938;9.124;2022-07-29T02:46:50;30.33;;;2.90;;
12715;SDS011;6422;49.938;9.124;2022-07-29T02:49:18;25.77;;;2.00;;
12715;SDS011;6422;49.938;9.124;2022-07-29T02:52:03;23.37;;;1.80;;
12715;SDS011;6422;49.938;9.124;2022-07-29T02:54:39;24.17;;;2.67;;
12715;SDS011;6422;49.938;9.124;2022-07-29T02:57:09;24.07;;;2.40;;
12715;SDS011;6422;49.938;9.124;2022-07-29T02:59:34;26.63;;;3.20;;
12715;SDS011;6422;49.938;9.124;2022-07-29T03:02:01;32.60;;;2.67;;
12715;SDS011;6422;49.938;9.124;2022-07-29T03:04:27;24.80;;;2.90;;
12715;SDS011;6422;49.938;9.124;2022-07-29T03:06:54;30.73;;;3.00;;
12715;SDS011;6422;49.938;9.124;2022-07-29T03:09:20;25.97;;;2.83;;
12715;SDS011;6422;49.938;9.124;2022-07-29T03:11:45;40.83;;;4.20;;
12715;SDS011;6422;49.938;9.124;2022-07-29T03:14:11;24.93;;;2.50;;
12715;SDS011;6422;49.938;9.124;2022-07-29T03:16:36;27.00;;;2.33;;
12715;SDS011;6422;49.938;9.124;2022-07-29T03:19:02;23.80;;;3.07;;
12715;SDS011;6422;49.938;9.124;2022-07-29T03:21:28;28.30;;;3.97;;
12715;SDS011;6422;49.938;9.124;2022-07-29T03:23:53;24.70;;;2.20;;
12715;SDS011;6422;49.938;9.124;2022-07-29T03:26:18;25.13;;;3.10;;
12715;SDS011;6422;49.938;9.124;2022-07-29T03:28:43;22.97;;;1.80;;
12715;SDS011;6422;49.938;9.124;2022-07-29T03:31:08;23.83;;;2.85;;
12715;SDS011;6422;49.938;9.124;2022-07-29T03:33:34;25.10;;;2.73;;
12715;SDS011;6422;49.938;9.124;2022-07-29T03:35:59;29.70;;;2.85;;
12715;SDS011;6422;49.938;9.124;2022-07-29T03:38:26;26.80;;;2.83;;
12715;SDS011;6422;49.938;9.124;2022-07-29T03:40:54;24.90;;;2.60;;
12715;SDS011;6422;49.938;9.124;2022-07-29T03:43:20;30.10;;;3.67;;
12715;SDS011;6422;49.938;9.124;2022-07-29T03:45:47;25.10;;;2.83;;
12715;SDS011;6422;49.938;9.124;2022-07-29T03:48:15;24.00;;;2.43;;
12715;SDS011;6422;49.938;9.124;2022-07-29T03:50:41;23.50;;;2.83;;
12715;SDS011;6422;49.938;9.124;2022-07-29T03:53:06;24.57;;;3.70;;
12715;SDS011;6422;49.938;9.124;2022-07-29T03:55:33;29.07;;;3.60;;
12715;SDS011;6422;49.938;9.124;2022-07-29T03:58:01;25.00;;;3.30;;
12715;SDS011;6422;49.938;9.124;2022-07-29T04:00:27;24.60;;;3.70;;
12715;SDS011;6422;49.938;9.124;2022-07-29T04:02:52;26.60;;;3.77;;
12715;SDS011;6422;49.938;9.124;2022-07-29T04:05:17;25.00;;;2.87;;
12715;SDS011;6422;49.938;9.124;2022-07-29T04:07:43;25.13;;;3.17;;
12715;SDS011;6422;49.938;9.124;2022-07-29T04:10:08;24.60;;;2.93;;
12715;SDS011;6422;49.938;9.124;2022-07-29T04:12:34;25.87;;;3.50;;
12715;SDS011;6422;49.938;9.124;2022-07-29T04:14:59;25.23;;;3.38;;
12715;SDS011;6422;49.938;9.124;2022-07-29T04:17:24;23.85;;;2.53;;
12715;SDS011;6422;49.938;9.124;2022-07-29T04:19:49;28.52;;;2.50;;
12715;SDS011;6422;49.938;9.124;2022-07-29T04:22:14;23.10;;;2.33;;
12715;SDS011;6422;49.938;9.124;2022-07-29T04:24:39;25.52;;;2.47;;
12715;SDS011;6422;49.938;9.124;2022-07-29T04:27:06;26.80;;;2.77;;
12715;SDS011;6422;49.938;9.124;2022-07-29T04:29:31;28.10;;;2.90;;
12715;SDS011;6422;49.938;9.124;2022-07-29T04:31:56;25.10;;;2.63;;
12715;SDS011;6422;49.938;9.124;2022-07-29T04:34:21;28.02;;;2.90;;
12715;SDS011;6422;49.938;9.124;2022-07-29T04:36:46;24.03;;;2.87;;
12715;SDS011;6422;49.938;9.124;2022-07-29T04:39:12;22.53;;;2.50;;
12715;SDS011;6422;49.938;9.124;2022-07-29T04:41:37;25.33;;;2.90;;
12715;SDS011;6422;49.938;9.124;2022-07-29T04:44:03;25.20;;;2.53;;
12715;SDS011;6422;49.938;9.124;2022-07-29T04:46:30;24.07;;;2.50;;
12715;SDS011;6422;49.938;9.124;2022-07-29T04:48:55;23.80;;;2.20;;
12715;SDS011;6422;49.938;9.124;2022-07-29T04:51:20;23.97;;;2.20;;
12715;SDS011;6422;49.938;9.124;2022-07-29T04:53:45;23.23;;;1.90;;
12715;SDS011;6422;49.938;9.124;2022-07-29T04:56:10;26.00;;;2.50;;
12715;SDS011;6422;49.938;9.124;2022-07-29T04:58:36;24.37;;;2.30;;
12715;SDS011;6422;49.938;9.124;2022-07-29T05:01:01;27.83;;;3.70;;
12715;SDS011;6422;49.938;9.124;2022-07-29T05:03:27;25.83;;;1.90;;
12715;SDS011;6422;49.938;9.124;2022-07-29T05:05:52;24.87;;;2.10;;
12715;SDS011;6422;49.938;9.124;2022-07-29T05:08:17;27.03;;;2.30;;
12715;SDS011;6422;49.938;9.124;2022-07-29T05:10:42;29.57;;;2.50;;
12715;SDS011;6422;49.938;9.124;2022-07-29T05:13:08;24.50;;;2.53;;
12715;SDS011;6422;49.938;9.124;2022-07-29T05:15:33;24.73;;;2.00;;
12715;SDS011;6422;49.938;9.124;2022-07-29T05:17:58;24.50;;;2.27;;
12715;SDS011;6422;49.938;9.124;2022-07-29T05:20:24;24.57;;;2.50;;
12715;SDS011;6422;49.938;9.124;2022-07-29T05:22:53;24.87;;;2.23;;
12715;SDS011;6422;49.938;9.124;2022-07-29T05:25:18;27.93;;;2.67;;
12715;SDS011;6422;49.938;9.124;2022-07-29T05:27:43;49.97;;;3.37;;
12715;SDS011;6422;49.938;9.124;2022-07-29T05:30:08;27.27;;;3.05;;
12715;SDS011;6422;49.938;9.124;2022-07-29T05:32:33;24.90;;;2.83;;
12715;SDS011;6422;49.938;9.124;2022-07-29T05:34:59;24.02;;;2.95;;
12715;SDS011;6422;49.938;9.124;2022-07-29T05:37:24;26.15;;;3.13;;
12715;SDS011;6422;49.938;9.124;2022-07-29T05:39:49;28.00;;;3.10;;
12715;SDS011;6422;49.938;9.124;2022-07-29T05:42:14;24.67;;;2.80;;
12715;SDS011;6422;49.938;9.124;2022-07-29T05:44:39;24.60;;;3.08;;
12715;SDS011;6422;49.938;9.124;2022-07-29T05:47:05;23.17;;;2.53;;
12715;SDS011;6422;49.938;9.124;2022-07-29T05:49:31;25.27;;;2.77;;
12715;SDS011;6422;49.938;9.124;2022-07-29T05:51:56;26.63;;;2.90;;
12715;SDS011;6422;49.938;9.124;2022-07-29T05:54:21;24.60;;;2.83;;
12715;SDS011;6422;49.938;9.124;2022-07-29T05:56:46;24.58;;;3.00;;
12715;SDS011;6422;49.938;9.124;2022-07-29T05:59:12;26.30;;;2.77;;
12715;SDS011;6422;49.938;9.124;2022-07-29T06:01:37;23.27;;;2.40;;
12715;SDS011;6422;49.938;9.124;2022-07-29T06:04:04;27.20;;;3.70;;
12715;SDS011;6422;49.938;9.124;2022-07-29T06:06:29;28.50;;;2.83;;
12715;SDS011;6422;49.938;9.124;2022-07-29T06:08:54;22.90;;;2.60;;
12715;SDS011;6422;49.938;9.124;2022-07-29T06:11:19;22.88;;;2.17;;
12715;SDS011;6422;49.938;9.124;2022-07-29T06:13:45;26.37;;;2.17;;
12715;SDS011;6422;49.938;9.124;2022-07-29T06:16:10;23.93;;;2.57;;
12715;SDS011;6422;49.938;9.124;2022-07-29T06:18:35;25.83;;;2.67;;
12715;SDS011;6422;49.938;9.124;2022-07-29T06:21:00;26.17;;;2.40;;
12715;SDS011;6422;49.938;9.124;2022-07-29T06:23:26;25.83;;;2.13;;
12715;SDS011;6422;49.938;9.124;2022-07-29T06:25:51;25.50;;;2.23;;
12715;SDS011;6422;49.938;9.124;2022-07-29T06:28:16;24.42;;;2.33;;
12715;SDS011;6422;49.938;9.124;2022-07-29T06:30:41;23.30;;;2.10;;
12715;SDS011;6422;49.938;9.124;2022-07-29T06:33:06;26.00;;;2.97;;
12715;SDS011;6422;49.938;9.124;2022-07-29T06:35:34;27.10;;;2.60;;
12715;SDS011;6422;49.938;9.124;2022-07-29T06:38:00;24.67;;;2.40;;
12715;SDS011;6422;49.938;9.124;2022-07-29T06:40:25;24.27;;;2.27;;
12715;SDS011;6422;49.938;9.124;2022-07-29T06:43:09;23.70;;;2.00;;
12715;SDS011;6422;49.938;9.124;2022-07-29T06:45:35;23.60;;;1.90;;
12715;SDS011;6422;49.938;9.124;2022-07-29T06:48:00;24.80;;;2.03;;
12715;SDS011;6422;49.938;9.124;2022-07-29T06:50:26;23.17;;;1.83;;
12715;SDS011;6422;49.938;9.124;2022-07-29T06:52:51;24.50;;;2.23;;
12715;SDS011;6422;49.938;9.124;2022-07-29T06:55:16;24.00;;;1.93;;
12715;SDS011;6422;49.938;9.124;2022-07-29T06:57:44;25.47;;;1.77;;
12715;SDS011;6422;49.938;9.124;2022-07-29T07:00:09;23.77;;;2.15;;
12715;SDS011;6422;49.938;9.124;2022-07-29T07:02:34;24.40;;;1.80;;
12715;SDS011;6422;49.938;9.124;2022-07-29T07:04:59;23.47;;;1.73;;
12715;SDS011;6422;49.938;9.124;2022-07-29T07:07:25;24.90;;;1.93;;
12715;SDS011;6422;49.938;9.124;2022-07-29T07:09:50;24.37;;;2.30;;
12715;SDS011;6422;49.938;9.124;2022-07-29T07:12:15;25.20;;;2.00;;
12715;SDS011;6422;49.938;9.124;2022-07-29T07:14:40;24.23;;;1.73;;
12715;SDS011;6422;49.938;9.124;2022-07-29T07:17:06;23.42;;;1.80;;
12715;SDS011;6422;49.938;9.124;2022-07-29T07:19:31;24.17;;;1.97;;
12715;SDS011;6422;49.938;9.124;2022-07-29T07:21:57;25.03;;;2.10;;
12715;SDS011;6422;49.938;9.124;2022-07-29T07:24:22;26.70;;;2.05;;
12715;SDS011;6422;49.938;9.124;2022-07-29T07:26:47;24.77;;;2.07;;
12715;SDS011;6422;49.938;9.124;2022-07-29T07:29:12;25.03;;;1.63;;
12715;SDS011;6422;49.938;9.124;2022-07-29T07:31:38;23.17;;;1.53;;
12715;SDS011;6422;49.938;9.124;2022-07-29T07:34:03;24.07;;;2.13;;
12715;SDS011;6422;49.938;9.124;2022-07-29T07:36:28;24.57;;;2.17;;
12715;SDS011;6422;49.938;9.124;2022-07-29T07:38:53;24.57;;;1.90;;
12715;SDS011;6422;49.938;9.124;2022-07-29T07:41:18;24.70;;;1.97;;
12715;SDS011;6422;49.938;9.124;2022-07-29T07:43:43;23.00;;;1.48;;
12715;SDS011;6422;49.938;9.124;2022-07-29T07:46:09;24.92;;;2.08;;
12715;SDS011;6422;49.938;9.124;2022-07-29T07:48:34;28.53;;;2.00;;
12715;SDS011;6422;49.938;9.124;2022-07-29T07:50:59;27.93;;;3.27;;
12715;SDS011;6422;49.938;9.124;2022-07-29T07:53:25;26.43;;;1.80;;
12715;SDS011;6422;49.938;9.124;2022-07-29T07:55:50;25.17;;;1.83;;
12715;SDS011;6422;49.938;9.124;2022-07-29T07:58:15;32.60;;;2.05;;
12715;SDS011;6422;49.938;9.124;2022-07-29T08:00:40;23.67;;;1.87;;
12715;SDS011;6422;49.938;9.124;2022-07-29T08:03:05;24.67;;;1.90;;
12715;SDS011;6422;49.938;9.124;2022-07-29T08:05:30;35.07;;;1.80;;
12715;SDS011;6422;49.938;9.124;2022-07-29T08:07:56;30.10;;;2.10;;
12715;SDS011;6422;49.938;9.124;2022-07-29T08:10:21;30.33;;;2.20;;
12715;SDS011;6422;49.938;9.124;2022-07-29T08:13:06;24.40;;;1.70;;
12715;SDS011;6422;49.938;9.124;2022-07-29T08:15:31;36.63;;;2.53;;
12715;SDS011;6422;49.938;9.124;2022-07-29T08:17:57;22.70;;;1.40;;
12715;SDS011;6422;49.938;9.124;2022-07-29T08:20:22;30.03;;;2.30;;
12715;SDS011;6422;49.938;9.124;2022-07-29T08:22:47;23.20;;;1.60;;
12715;SDS011;6422;49.938;9.124;2022-07-29T08:25:12;23.97;;;1.83;;
12715;SDS011;6422;49.938;9.124;2022-07-29T08:27:37;24.23;;;1.70;;
12715;SDS011;6422;49.938;9.124;2022-07-29T08:30:03;23.52;;;1.58;;
12715;SDS011;6422;49.938;9.124;2022-07-29T08:32:28;28.03;;;1.80;;
12715;SDS011;6422;49.938;9.124;2022-07-29T08:34:53;26.20;;;2.27;;
12715;SDS011;6422;49.938;9.124;2022-07-29T08:37:18;25.30;;;1.93;;
12715;SDS011;6422;49.938;9.124;2022-07-29T08:39:43;24.60;;;1.80;;
12715;SDS011;6422;49.938;9.124;2022-07-29T08:42:09;23.20;;;1.40;;
12715;SDS011;6422;49.938;9.124;2022-07-29T08:44:35;23.53;;;1.67;;
12715;SDS011;6422;49.938;9.124;2022-07-29T08:47:00;25.10;;;1.77;;
12715;SDS011;6422;49.938;9.124;2022-07-29T08:49:26;23.80;;;1.50;;
12715;SDS011;6422;49.938;9.124;2022-07-29T08:51:51;29.63;;;2.30;;
12715;SDS011;6422;49.938;9.124;2022-07-29T08:54:17;23.83;;;1.70;;
12715;SDS011;6422;49.938;9.124;2022-07-29T08:56:42;34.73;;;2.87;;
12715;SDS011;6422;49.938;9.124;2022-07-29T08:59:07;23.87;;;1.53;;
12715;SDS011;6422;49.938;9.124;2022-07-29T09:01:33;25.60;;;2.67;;
12715;SDS011;6422;49.938;9.124;2022-07-29T09:03:59;23.30;;;1.30;;
12715;SDS011;6422;49.938;9.124;2022-07-29T09:06:26;25.30;;;1.73;;
12715;SDS011;6422;49.938;9.124;2022-07-29T09:08:56;23.87;;;2.30;;
12715;SDS011;6422;49.938;9.124;2022-07-29T09:11:23;24.60;;;1.80;;
12715;SDS011;6422;49.938;9.124;2022-07-29T09:13:48;30.30;;;2.23;;
12715;SDS011;6422;49.938;9.124;2022-07-29T09:16:14;24.40;;;1.83;;
12715;SDS011;6422;49.938;9.124;2022-07-29T09:18:40;25.70;;;2.33;;
12715;SDS011;6422;49.938;9.124;2022-07-29T09:21:08;23.17;;;1.67;;
12715;SDS011;6422;49.938;9.124;2022-07-29T09:24:11;25.27;;;2.07;;
12715;SDS011;6422;49.938;9.124;2022-07-29T09:26:38;28.80;;;1.90;;
12715;SDS011;6422;49.938;9.124;2022-07-29T09:29:10;51.37;;;3.43;;
12715;SDS011;6422;49.938;9.124;2022-07-29T09:31:37;25.70;;;2.10;;
12715;SDS011;6422;49.938;9.124;2022-07-29T09:34:04;47.57;;;2.40;;
12715;SDS011;6422;49.938;9.124;2022-07-29T09:36:30;23.77;;;1.70;;
12715;SDS011;6422;49.938;9.124;2022-07-29T09:39:01;24.90;;;2.17;;
12715;SDS011;6422;49.938;9.124;2022-07-29T09:41:27;26.67;;;1.70;;
12715;SDS011;6422;49.938;9.124;2022-07-29T09:43:53;26.53;;;2.13;;
12715;SDS011;6422;49.938;9.124;2022-07-29T09:46:19;25.37;;;1.83;;
12715;SDS011;6422;49.938;9.124;2022-07-29T09:48:44;24.30;;;2.00;;
12715;SDS011;6422;49.938;9.124;2022-07-29T09:51:18;29.23;;;1.93;;
12715;SDS011;6422;49.938;9.124;2022-07-29T09:53:44;23.00;;;1.70;;
12715;SDS011;6422;49.938;9.124;2022-07-29T09:56:09;31.53;;;2.30;;
12715;SDS011;6422;49.938;9.124;2022-07-29T09:58:35;26.93;;;1.60;;
12715;SDS011;6422;49.938;9.124;2022-07-29T10:01:01;25.10;;;1.50;;
12715;SDS011;6422;49.938;9.124;2022-07-29T10:03:26;24.30;;;1.77;;
12715;SDS011;6422;49.938;9.124;2022-07-29T10:06:07;23.80;;;1.93;;
12715;SDS011;6422;49.938;9.124;2022-07-29T10:08:33;23.60;;;1.77;;
12715;SDS011;6422;49.938;9.124;2022-07-29T10:11:14;23.27;;;1.60;;
12715;SDS011;6422;49.938;9.124;2022-07-29T10:13:40;27.43;;;3.63;;
12715;SDS011;6422;49.938;9.124;2022-07-29T10:16:05;23.63;;;1.70;;
12715;SDS011;6422;49.938;9.124;2022-07-29T10:18:30;23.60;;;1.93;;
12715;SDS011;6422;49.938;9.124;2022-07-29T10:20:56;24.87;;;1.90;;
12715;SDS011;6422;49.938;9.124;2022-07-29T10:23:21;24.67;;;1.97;;
12715;SDS011;6422;49.938;9.124;2022-07-29T10:25:47;23.03;;;1.73;;
12715;SDS011;6422;49.938;9.124;2022-07-29T10:28:12;23.47;;;1.90;;
12715;SDS011;6422;49.938;9.124;2022-07-29T10:30:38;23.60;;;1.43;;
12715;SDS011;6422;49.938;9.124;2022-07-29T10:33:14;24.47;;;2.03;;
12715;SDS011;6422;49.938;9.124;2022-07-29T10:44:03;52.17;;;2.23;;
12715;SDS011;6422;49.938;9.124;2022-07-29T10:46:34;26.80;;;2.13;;
12715;SDS011;6422;49.938;9.124;2022-07-29T10:49:06;23.73;;;1.60;;
12715;SDS011;6422;49.938;9.124;2022-07-29T10:54:16;23.90;;;1.67;;
12715;SDS011;6422;49.938;9.124;2022-07-29T10:56:42;23.60;;;1.67;;
12715;SDS011;6422;49.938;9.124;2022-07-29T11:01:51;23.67;;;1.60;;
12715;SDS011;6422;49.938;9.124;2022-07-29T11:04:58;23.77;;;1.57;;
12715;SDS011;6422;49.938;9.124;2022-07-29T11:09:27;24.08;;;1.70;;
12715;SDS011;6422;49.938;9.124;2022-07-29T11:11:54;24.20;;;1.60;;
12715;SDS011;6422;49.938;9.124;2022-07-29T11:17:04;23.83;;;1.73;;
12715;SDS011;6422;49.938;9.124;2022-07-29T11:19:30;32.20;;;2.20;;
12715;SDS011;6422;49.938;9.124;2022-07-29T11:21:55;24.03;;;2.00;;
12715;SDS011;6422;49.938;9.124;2022-07-29T11:24:21;23.70;;;1.83;;
12715;SDS011;6422;49.938;9.124;2022-07-29T11:29:32;24.97;;;2.30;;
12715;SDS011;6422;49.938;9.124;2022-07-29T11:32:12;24.50;;;1.80;;
12715;SDS011;6422;49.938;9.124;2022-07-29T11:34:39;26.83;;;2.27;;
12715;SDS011;6422;49.938;9.124;2022-07-29T11:44:56;22.83;;;1.43;;
12715;SDS011;6422;49.938;9.124;2022-07-29T11:47:22;23.50;;;1.60;;
12715;SDS011;6422;49.938;9.124;2022-07-29T11:49:47;23.73;;;1.80;;
12715;SDS011;6422;49.938;9.124;2022-07-29T11:52:12;24.00;;;1.80;;
12715;SDS011;6422;49.938;9.124;2022-07-29T11:54:38;25.23;;;1.90;;
12715;SDS011;6422;49.938;9.124;2022-07-29T11:57:06;23.50;;;1.67;;
12715;SDS011;6422;49.938;9.124;2022-07-29T11:59:31;23.37;;;1.60;;
12715;SDS011;6422;49.938;9.124;2022-07-29T12:02:03;27.73;;;2.43;;
12715;SDS011;6422;49.938;9.124;2022-07-29T12:04:28;23.07;;;1.57;;
12715;SDS011;6422;49.938;9.124;2022-07-29T12:06:53;23.20;;;1.70;;
12715;SDS011;6422;49.938;9.124;2022-07-29T12:09:19;26.83;;;1.97;;
12715;SDS011;6422;49.938;9.124;2022-07-29T12:11:45;22.87;;;1.70;;
12715;SDS011;6422;49.938;9.124;2022-07-29T12:14:24;23.13;;;1.83;;
12715;SDS011;6422;49.938;9.124;2022-07-29T12:16:49;27.33;;;2.13;;
12715;SDS011;6422;49.938;9.124;2022-07-29T12:19:14;25.17;;;1.60;;
12715;SDS011;6422;49.938;9.124;2022-07-29T12:21:43;26.60;;;2.00;;
12715;SDS011;6422;49.938;9.124;2022-07-29T12:24:08;24.40;;;2.30;;
12715;SDS011;6422;49.938;9.124;2022-07-29T12:26:33;22.50;;;1.50;;
12715;SDS011;6422;49.938;9.124;2022-07-29T12:28:59;23.10;;;1.77;;
12715;SDS011;6422;49.938;9.124;2022-07-29T12:31:24;23.27;;;1.70;;
12715;SDS011;6422;49.938;9.124;2022-07-29T12:33:52;26.20;;;1.70;;
12715;SDS011;6422;49.938;9.124;2022-07-29T12:36:18;23.27;;;1.70;;
12715;SDS011;6422;49.938;9.124;2022-07-29T12:38:43;26.00;;;1.90;;
12715;SDS011;6422;49.938;9.124;2022-07-29T12:41:09;22.87;;;1.43;;
12715;SDS011;6422;49.938;9.124;2022-07-29T12:43:35;24.57;;;2.27;;
12715;SDS011;6422;49.938;9.124;2022-07-29T12:46:10;23.30;;;1.70;;
12715;SDS011;6422;49.938;9.124;2022-07-29T12:48:37;23.53;;;2.27;;
12715;SDS011;6422;49.938;9.124;2022-07-29T12:51:03;23.70;;;1.90;;
12715;SDS011;6422;49.938;9.124;2022-07-29T12:53:29;23.87;;;2.00;;
12715;SDS011;6422;49.938;9.124;2022-07-29T12:55:55;24.07;;;2.03;;
12715;SDS011;6422;49.938;9.124;2022-07-29T13:03:46;24.33;;;2.30;;
12715;SDS011;6422;49.938;9.124;2022-07-29T13:11:30;22.70;;;1.50;;
12715;SDS011;6422;49.938;9.124;2022-07-29T13:13:55;23.20;;;1.67;;
12715;SDS011;6422;49.938;9.124;2022-07-29T13:16:20;25.67;;;1.83;;
12715;SDS011;6422;49.938;9.124;2022-07-29T13:18:46;28.17;;;1.70;;
12715;SDS011;6422;49.938;9.124;2022-07-29T13:21:12;23.47;;;1.90;;
12715;SDS011;6422;49.938;9.124;2022-07-29T13:23:37;24.40;;;2.07;;
12715;SDS011;6422;49.938;9.124;2022-07-29T13:26:08;24.97;;;1.97;;
12715;SDS011;6422;49.938;9.124;2022-07-29T13:28:34;32.20;;;1.80;;
12715;SDS011;6422;49.938;9.124;2022-07-29T13:30:59;22.60;;;1.40;;
12715;SDS011;6422;49.938;9.124;2022-07-29T13:33:24;23.20;;;2.07;;
12715;SDS011;6422;49.938;9.124;2022-07-29T13:35:49;24.70;;;1.80;;
12715;SDS011;6422;49.938;9.124;2022-07-29T13:38:15;23.70;;;2.10;;
12715;SDS011;6422;49.938;9.124;2022-07-29T13:40:40;24.37;;;2.17;;
12715;SDS011;6422;49.938;9.124;2022-07-29T13:43:08;23.87;;;2.30;;
12715;SDS011;6422;49.938;9.124;2022-07-29T13:45:33;24.60;;;1.80;;
12715;SDS011;6422;49.938;9.124;2022-07-29T13:47:58;23.87;;;2.13;;
12715;SDS011;6422;49.938;9.124;2022-07-29T13:50:24;23.57;;;1.87;;
12715;SDS011;6422;49.938;9.124;2022-07-29T13:52:49;32.90;;;2.33;;
12715;SDS011;6422;49.938;9.124;2022-07-29T13:55:15;24.17;;;2.00;;
12715;SDS011;6422;49.938;9.124;2022-07-29T13:57:40;23.67;;;1.48;;
12715;SDS011;6422;49.938;9.124;2022-07-29T14:00:06;28.38;;;1.77;;
12715;SDS011;6422;49.938;9.124;2022-07-29T14:02:31;24.30;;;1.87;;
12715;SDS011;6422;49.938;9.124;2022-07-29T14:04:57;24.70;;;2.03;;
12715;SDS011;6422;49.938;9.124;2022-07-29T14:07:23;26.80;;;2.38;;
12715;SDS011;6422;49.938;9.124;2022-07-29T14:09:48;24.20;;;2.07;;
12715;SDS011;6422;49.938;9.124;2022-07-29T14:12:13;29.30;;;2.17;;
12715;SDS011;6422;49.938;9.124;2022-07-29T14:14:38;23.67;;;1.63;;
12715;SDS011;6422;49.938;9.124;2022-07-29T14:17:04;23.77;;;1.60;;
12715;SDS011;6422;49.938;9.124;2022-07-29T14:19:31;23.90;;;1.80;;
12715;SDS011;6422;49.938;9.124;2022-07-29T14:22:00;30.90;;;2.47;;
12715;SDS011;6422;49.938;9.124;2022-07-29T14:24:25;26.55;;;2.53;;
12715;SDS011;6422;49.938;9.124;2022-07-29T14:26:50;32.35;;;2.90;;
12715;SDS011;6422;49.938;9.124;2022-07-29T14:29:15;27.83;;;3.40;;
12715;SDS011;6422;49.938;9.124;2022-07-29T14:31:40;26.77;;;3.13;;
12715;SDS011;6422;49.938;9.124;2022-07-29T14:34:05;29.60;;;3.23;;
12715;SDS011;6422;49.938;9.124;2022-07-29T14:36:30;28.75;;;4.95;;
12715;SDS011;6422;49.938;9.124;2022-07-29T14:38:56;26.17;;;3.65;;
12715;SDS011;6422;49.938;9.124;2022-07-29T14:41:21;26.30;;;3.17;;
12715;SDS011;6422;49.938;9.124;2022-07-29T14:43:46;32.73;;;6.03;;
12715;SDS011;6422;49.938;9.124;2022-07-29T14:46:11;43.20;;;9.30;;
12715;SDS011;6422;49.938;9.124;2022-07-29T14:48:36;29.43;;;6.67;;
12715;SDS011;6422;49.938;9.124;2022-07-29T14:51:02;28.83;;;6.63;;
12715;SDS011;6422;49.938;9.124;2022-07-29T14:53:27;27.60;;;5.97;;
12715;SDS011;6422;49.938;9.124;2022-07-29T14:55:52;27.97;;;6.13;;
12715;SDS011;6422;49.938;9.124;2022-07-29T14:58:17;28.08;;;6.13;;
12715;SDS011;6422;49.938;9.124;2022-07-29T15:00:44;29.20;;;5.87;;
12715;SDS011;6422;49.938;9.124;2022-07-29T15:03:09;27.90;;;6.60;;
12715;SDS011;6422;49.938;9.124;2022-07-29T15:05:35;30.60;;;7.00;;
12715;SDS011;6422;49.938;9.124;2022-07-29T15:08:00;32.53;;;6.17;;
12715;SDS011;6422;49.938;9.124;2022-07-29T15:10:25;28.40;;;6.17;;
12715;SDS011;6422;49.938;9.124;2022-07-29T15:12:54;23.43;;;2.90;;
12715;SDS011;6422;49.938;9.124;2022-07-29T15:15:19;24.67;;;3.20;;
12715;SDS011;6422;49.938;9.124;2022-07-29T15:17:44;26.03;;;3.73;;
12715;SDS011;6422;49.938;9.124;2022-07-29T15:20:10;27.33;;;3.07;;
12715;SDS011;6422;49.938;9.124;2022-07-29T15:22:36;30.47;;;3.50;;
12715;SDS011;6422;49.938;9.124;2022-07-29T15:25:03;32.90;;;4.00;;
12715;SDS011;6422;49.938;9.124;2022-07-29T15:27:28;23.13;;;2.90;;
12715;SDS011;6422;49.938;9.124;2022-07-29T15:29:53;23.87;;;3.53;;
12715;SDS011;6422;49.938;9.124;2022-07-29T15:32:18;26.73;;;4.00;;
12715;SDS011;6422;49.938;9.124;2022-07-29T15:34:43;23.00;;;3.17;;
12715;SDS011;6422;49.938;9.124;2022-07-29T15:37:08;27.20;;;4.90;;
12715;SDS011;6422;49.938;9.124;2022-07-29T15:39:35;21.93;;;2.60;;